sensor_id;sensor_type;location;lat;lon;timestamp;P1;durP1;ratioP1;P2;durP2;ratioP2
495;SDS011;39559;48.630;9.162;2022-12-29T00:01:06;4.07;;;3.03;;
495;SDS011;39559;48.630;9.162;2022-12-29T00:05:25;3.95;;;3.55;;
495;SDS011;39559;48.630;9.162;2022-12-29T00:07:50;3.70;;;3.30;;
495;SDS011;39559;48.630;9.162;2022-12-29T00:10:16;4.17;;;3.40;;
495;SDS011;39559;48.630;9.162;2022-12-29T00:12:42;4.07;;;2.97;;
495;SDS011;39559;48.630;9.162;2022-12-29T00:15:26;4.18;;;3.20;;
495;SDS011;39559;48.630;9.162;2022-12-29T00:18:03;3.20;;;3.00;;
495;SDS011;39559;48.630;9.162;2022-12-29T00:20:29;3.57;;;3.27;;
495;SDS011;39559;48.630;9.162;2022-12-29T00:23:16;4.38;;;3.15;;
495;SDS011;39559;48.630;9.162;2022-12-29T00:26:02;3.50;;;3.20;;
495;SDS011;39559;48.630;9.162;2022-12-29T00:29:25;3.45;;;3.15;;
495;SDS011;39559;48.630;9.162;2022-12-29T00:32:09;3.75;;;3.45;;
495;SDS011;39559;48.630;9.162;2022-12-29T00:34:53;3.65;;;2.90;;
495;SDS011;39559;48.630;9.162;2022-12-29T00:37:37;4.43;;;3.40;;
495;SDS011;39559;48.630;9.162;2022-12-29T00:40:24;3.80;;;3.50;;
495;SDS011;39559;48.630;9.162;2022-12-29T00:43:08;4.43;;;3.47;;
495;SDS011;39559;48.630;9.162;2022-12-29T00:45:52;3.60;;;3.30;;
495;SDS011;39559;48.630;9.162;2022-12-29T00:48:17;3.70;;;3.40;;
495;SDS011;39559;48.630;9.162;2022-12-29T00:53:26;3.72;;;3.42;;
495;SDS011;39559;48.630;9.162;2022-12-29T00:55:51;6.00;;;3.57;;
495;SDS011;39559;48.630;9.162;2022-12-29T00:58:17;3.90;;;3.20;;
495;SDS011;39559;48.630;9.162;2022-12-29T01:00:42;3.30;;;3.00;;
495;SDS011;39559;48.630;9.162;2022-12-29T01:03:08;4.17;;;2.97;;
495;SDS011;39559;48.630;9.162;2022-12-29T01:05:35;3.20;;;3.00;;
495;SDS011;39559;48.630;9.162;2022-12-29T01:08:01;5.78;;;3.25;;
495;SDS011;39559;48.630;9.162;2022-12-29T01:10:29;4.93;;;3.10;;
495;SDS011;39559;48.630;9.162;2022-12-29T01:12:54;3.42;;;3.13;;
495;SDS011;39559;48.630;9.162;2022-12-29T01:17:26;3.20;;;2.90;;
495;SDS011;39559;48.630;9.162;2022-12-29T01:19:51;3.80;;;3.00;;
495;SDS011;39559;48.630;9.162;2022-12-29T01:22:17;3.80;;;3.27;;
495;SDS011;39559;48.630;9.162;2022-12-29T01:24:42;4.10;;;3.00;;
495;SDS011;39559;48.630;9.162;2022-12-29T01:27:08;5.63;;;3.10;;
495;SDS011;39559;48.630;9.162;2022-12-29T01:29:33;3.70;;;3.00;;
495;SDS011;39559;48.630;9.162;2022-12-29T01:31:59;4.80;;;3.43;;
495;SDS011;39559;48.630;9.162;2022-12-29T01:34:24;3.00;;;2.70;;
495;SDS011;39559;48.630;9.162;2022-12-29T01:36:50;3.43;;;2.80;;
495;SDS011;39559;48.630;9.162;2022-12-29T01:41:26;4.72;;;3.22;;
495;SDS011;39559;48.630;9.162;2022-12-29T01:43:53;3.17;;;2.87;;
495;SDS011;39559;48.630;9.162;2022-12-29T01:46:40;5.38;;;3.10;;
495;SDS011;39559;48.630;9.162;2022-12-29T01:49:11;3.85;;;3.03;;
495;SDS011;39559;48.630;9.162;2022-12-29T01:51:45;3.47;;;2.83;;
495;SDS011;39559;48.630;9.162;2022-12-29T01:54:19;4.03;;;3.05;;
495;SDS011;39559;48.630;9.162;2022-12-29T01:56:51;3.17;;;2.88;;
495;SDS011;39559;48.630;9.162;2022-12-29T01:59:19;3.28;;;3.00;;
495;SDS011;39559;48.630;9.162;2022-12-29T02:01:51;6.40;;;2.97;;
495;SDS011;39559;48.630;9.162;2022-12-29T02:07:58;3.28;;;2.97;;
495;SDS011;39559;48.630;9.162;2022-12-29T02:10:25;5.13;;;3.00;;
495;SDS011;39559;48.630;9.162;2022-12-29T02:12:53;3.05;;;2.75;;
495;SDS011;39559;48.630;9.162;2022-12-29T02:15:20;3.40;;;3.10;;
495;SDS011;39559;48.630;9.162;2022-12-29T02:19:25;2.97;;;2.65;;
495;SDS011;39559;48.630;9.162;2022-12-29T02:21:46;2.95;;;2.75;;
495;SDS011;39559;48.630;9.162;2022-12-29T02:24:33;3.38;;;3.08;;
495;SDS011;39559;48.630;9.162;2022-12-29T02:35:05;3.88;;;3.10;;
495;SDS011;39559;48.630;9.162;2022-12-29T02:40:23;4.32;;;2.70;;
495;SDS011;39559;48.630;9.162;2022-12-29T02:48:13;3.30;;;3.03;;
495;SDS011;39559;48.630;9.162;2022-12-29T02:53:26;3.47;;;2.95;;
495;SDS011;39559;48.630;9.162;2022-12-29T02:56:12;3.45;;;2.92;;
495;SDS011;39559;48.630;9.162;2022-12-29T02:58:38;3.50;;;3.27;;
495;SDS011;39559;48.630;9.162;2022-12-29T03:20:52;3.55;;;2.60;;
495;SDS011;39559;48.630;9.162;2022-12-29T03:23:21;3.80;;;2.80;;
495;SDS011;39559;48.630;9.162;2022-12-29T03:25:51;2.75;;;2.33;;
495;SDS011;39559;48.630;9.162;2022-12-29T03:28:25;3.30;;;2.70;;
495;SDS011;39559;48.630;9.162;2022-12-29T03:30:55;3.25;;;2.95;;
495;SDS011;39559;48.630;9.162;2022-12-29T03:33:24;3.53;;;2.95;;
495;SDS011;39559;48.630;9.162;2022-12-29T03:35:54;2.75;;;2.40;;
495;SDS011;39559;48.630;9.162;2022-12-29T03:41:26;3.85;;;2.90;;
495;SDS011;39559;48.630;9.162;2022-12-29T03:43:55;3.63;;;2.90;;
495;SDS011;39559;48.630;9.162;2022-12-29T03:46:20;3.43;;;3.13;;
495;SDS011;39559;48.630;9.162;2022-12-29T03:48:46;3.60;;;2.90;;
495;SDS011;39559;48.630;9.162;2022-12-29T03:51:11;3.17;;;2.87;;
495;SDS011;39559;48.630;9.162;2022-12-29T03:53:37;2.97;;;2.77;;
495;SDS011;39559;48.630;9.162;2022-12-29T03:56:02;4.30;;;2.60;;
495;SDS011;39559;48.630;9.162;2022-12-29T03:58:28;3.63;;;2.87;;
495;SDS011;39559;48.630;9.162;2022-12-29T04:00:53;3.37;;;2.90;;
495;SDS011;39559;48.630;9.162;2022-12-29T04:05:25;2.60;;;2.40;;
495;SDS011;39559;48.630;9.162;2022-12-29T04:07:51;3.80;;;3.00;;
495;SDS011;39559;48.630;9.162;2022-12-29T04:10:16;3.23;;;2.93;;
495;SDS011;39559;48.630;9.162;2022-12-29T04:12:42;3.20;;;2.90;;
495;SDS011;39559;48.630;9.162;2022-12-29T04:15:08;3.30;;;3.00;;
495;SDS011;39559;48.630;9.162;2022-12-29T04:17:34;4.60;;;2.95;;
495;SDS011;39559;48.630;9.162;2022-12-29T04:19:59;3.37;;;3.07;;
495;SDS011;39559;48.630;9.162;2022-12-29T04:22:43;3.33;;;3.03;;
495;SDS011;39559;48.630;9.162;2022-12-29T04:25:09;6.87;;;3.10;;
495;SDS011;39559;48.630;9.162;2022-12-29T04:29:24;5.00;;;3.13;;
495;SDS011;39559;48.630;9.162;2022-12-29T04:31:50;3.83;;;3.00;;
495;SDS011;39559;48.630;9.162;2022-12-29T04:34:15;4.40;;;2.80;;
495;SDS011;39559;48.630;9.162;2022-12-29T04:36:41;3.60;;;3.10;;
495;SDS011;39559;48.630;9.162;2022-12-29T04:39:07;3.00;;;2.80;;
495;SDS011;39559;48.630;9.162;2022-12-29T04:41:33;5.05;;;3.15;;
495;SDS011;39559;48.630;9.162;2022-12-29T04:43:58;3.63;;;2.80;;
495;SDS011;39559;48.630;9.162;2022-12-29T04:46:24;3.70;;;3.30;;
495;SDS011;39559;48.630;9.162;2022-12-29T04:48:50;3.60;;;3.30;;
495;SDS011;39559;48.630;9.162;2022-12-29T04:53:23;6.00;;;2.90;;
495;SDS011;39559;48.630;9.162;2022-12-29T04:55:49;3.33;;;2.90;;
495;SDS011;39559;48.630;9.162;2022-12-29T04:58:16;3.17;;;2.88;;
495;SDS011;39559;48.630;9.162;2022-12-29T05:00:42;3.80;;;2.63;;
495;SDS011;39559;48.630;9.162;2022-12-29T05:03:07;3.30;;;3.00;;
495;SDS011;39559;48.630;9.162;2022-12-29T05:05:33;3.10;;;2.90;;
495;SDS011;39559;48.630;9.162;2022-12-29T05:07:58;3.27;;;2.97;;
495;SDS011;39559;48.630;9.162;2022-12-29T05:10:24;4.90;;;3.17;;
495;SDS011;39559;48.630;9.162;2022-12-29T05:12:49;3.30;;;3.00;;
495;SDS011;39559;48.630;9.162;2022-12-29T05:17:23;3.55;;;3.17;;
495;SDS011;39559;48.630;9.162;2022-12-29T05:19:50;3.60;;;3.30;;
495;SDS011;39559;48.630;9.162;2022-12-29T05:22:15;3.67;;;3.20;;
495;SDS011;39559;48.630;9.162;2022-12-29T05:24:41;4.43;;;3.30;;
495;SDS011;39559;48.630;9.162;2022-12-29T05:27:06;3.47;;;3.00;;
495;SDS011;39559;48.630;9.162;2022-12-29T05:29:32;5.30;;;3.67;;
495;SDS011;39559;48.630;9.162;2022-12-29T05:31:57;3.40;;;3.10;;
495;SDS011;39559;48.630;9.162;2022-12-29T05:34:23;3.50;;;3.20;;
495;SDS011;39559;48.630;9.162;2022-12-29T05:36:48;3.07;;;2.77;;
495;SDS011;39559;48.630;9.162;2022-12-29T05:41:22;5.45;;;2.80;;
495;SDS011;39559;48.630;9.162;2022-12-29T05:43:47;5.13;;;3.37;;
495;SDS011;39559;48.630;9.162;2022-12-29T05:46:13;5.53;;;2.97;;
495;SDS011;39559;48.630;9.162;2022-12-29T05:48:38;3.17;;;2.80;;
495;SDS011;39559;48.630;9.162;2022-12-29T05:51:04;2.90;;;2.70;;
495;SDS011;39559;48.630;9.162;2022-12-29T05:53:30;3.10;;;2.80;;
495;SDS011;39559;48.630;9.162;2022-12-29T05:55:55;3.23;;;2.93;;
495;SDS011;39559;48.630;9.162;2022-12-29T05:58:21;5.17;;;3.27;;
495;SDS011;39559;48.630;9.162;2022-12-29T06:00:46;3.57;;;2.90;;
495;SDS011;39559;48.630;9.162;2022-12-29T06:05:22;3.72;;;3.10;;
495;SDS011;39559;48.630;9.162;2022-12-29T06:07:47;3.37;;;3.10;;
495;SDS011;39559;48.630;9.162;2022-12-29T06:10:13;3.33;;;3.03;;
495;SDS011;39559;48.630;9.162;2022-12-29T06:12:38;3.33;;;3.03;;
495;SDS011;39559;48.630;9.162;2022-12-29T06:15:04;4.77;;;3.23;;
495;SDS011;39559;48.630;9.162;2022-12-29T06:17:30;4.25;;;3.00;;
495;SDS011;39559;48.630;9.162;2022-12-29T06:19:56;3.37;;;3.07;;
495;SDS011;39559;48.630;9.162;2022-12-29T06:22:21;3.33;;;3.03;;
495;SDS011;39559;48.630;9.162;2022-12-29T06:24:46;6.23;;;3.20;;
495;SDS011;39559;48.630;9.162;2022-12-29T06:29:21;4.40;;;4.00;;
495;SDS011;39559;48.630;9.162;2022-12-29T06:31:46;3.47;;;2.77;;
495;SDS011;39559;48.630;9.162;2022-12-29T06:34:13;3.40;;;3.10;;
495;SDS011;39559;48.630;9.162;2022-12-29T06:36:39;3.43;;;3.13;;
495;SDS011;39559;48.630;9.162;2022-12-29T06:39:05;3.40;;;3.10;;
495;SDS011;39559;48.630;9.162;2022-12-29T06:41:30;3.37;;;3.07;;
495;SDS011;39559;48.630;9.162;2022-12-29T06:43:56;5.05;;;3.63;;
495;SDS011;39559;48.630;9.162;2022-12-29T06:46:22;4.37;;;3.73;;
495;SDS011;39559;48.630;9.162;2022-12-29T06:48:47;4.60;;;3.40;;
495;SDS011;39559;48.630;9.162;2022-12-29T06:53:20;3.60;;;3.10;;
495;SDS011;39559;48.630;9.162;2022-12-29T06:55:46;4.00;;;3.10;;
495;SDS011;39559;48.630;9.162;2022-12-29T06:58:11;3.17;;;2.87;;
495;SDS011;39559;48.630;9.162;2022-12-29T07:00:37;4.53;;;3.30;;
495;SDS011;39559;48.630;9.162;2022-12-29T07:03:02;7.03;;;3.67;;
495;SDS011;39559;48.630;9.162;2022-12-29T07:05:28;3.10;;;2.90;;
495;SDS011;39559;48.630;9.162;2022-12-29T07:07:56;3.95;;;3.00;;
495;SDS011;39559;48.630;9.162;2022-12-29T07:10:22;3.00;;;2.70;;
495;SDS011;39559;48.630;9.162;2022-12-29T07:12:48;3.30;;;3.00;;
495;SDS011;39559;48.630;9.162;2022-12-29T07:17:19;3.28;;;3.08;;
495;SDS011;39559;48.630;9.162;2022-12-29T07:19:44;3.03;;;2.73;;
495;SDS011;39559;48.630;9.162;2022-12-29T07:22:10;3.63;;;2.87;;
495;SDS011;39559;48.630;9.162;2022-12-29T07:24:35;3.33;;;3.03;;
495;SDS011;39559;48.630;9.162;2022-12-29T07:27:01;3.23;;;2.93;;
495;SDS011;39559;48.630;9.162;2022-12-29T07:29:26;3.00;;;2.70;;
495;SDS011;39559;48.630;9.162;2022-12-29T07:31:52;5.10;;;2.80;;
495;SDS011;39559;48.630;9.162;2022-12-29T07:34:17;3.40;;;3.10;;
495;SDS011;39559;48.630;9.162;2022-12-29T07:36:43;3.23;;;2.90;;
495;SDS011;39559;48.630;9.162;2022-12-29T07:41:18;3.33;;;2.97;;
495;SDS011;39559;48.630;9.162;2022-12-29T07:43:46;3.73;;;3.40;;
495;SDS011;39559;48.630;9.162;2022-12-29T07:46:12;3.42;;;3.13;;
495;SDS011;39559;48.630;9.162;2022-12-29T07:48:38;3.30;;;2.63;;
495;SDS011;39559;48.630;9.162;2022-12-29T07:51:03;3.00;;;2.70;;
495;SDS011;39559;48.630;9.162;2022-12-29T07:53:29;3.37;;;2.83;;
495;SDS011;39559;48.630;9.162;2022-12-29T07:55:55;3.67;;;3.33;;
495;SDS011;39559;48.630;9.162;2022-12-29T07:58:21;3.47;;;3.05;;
495;SDS011;39559;48.630;9.162;2022-12-29T08:00:46;3.40;;;3.10;;
495;SDS011;39559;48.630;9.162;2022-12-29T08:05:17;3.53;;;2.85;;
495;SDS011;39559;48.630;9.162;2022-12-29T08:07:44;2.90;;;2.70;;
495;SDS011;39559;48.630;9.162;2022-12-29T08:10:10;2.88;;;2.60;;
495;SDS011;39559;48.630;9.162;2022-12-29T08:12:39;4.30;;;2.85;;
495;SDS011;39559;48.630;9.162;2022-12-29T08:15:07;3.13;;;2.92;;
495;SDS011;39559;48.630;9.162;2022-12-29T08:17:34;2.92;;;2.72;;
495;SDS011;39559;48.630;9.162;2022-12-29T08:20:00;4.63;;;2.97;;
495;SDS011;39559;48.630;9.162;2022-12-29T08:22:25;2.70;;;2.50;;
495;SDS011;39559;48.630;9.162;2022-12-29T08:24:51;2.93;;;2.73;;
495;SDS011;39559;48.630;9.162;2022-12-29T08:29:17;2.75;;;2.55;;
495;SDS011;39559;48.630;9.162;2022-12-29T08:31:42;2.80;;;2.50;;
495;SDS011;39559;48.630;9.162;2022-12-29T08:34:08;2.57;;;2.37;;
495;SDS011;39559;48.630;9.162;2022-12-29T08:36:33;2.80;;;2.53;;
495;SDS011;39559;48.630;9.162;2022-12-29T08:38:59;3.33;;;2.70;;
495;SDS011;39559;48.630;9.162;2022-12-29T08:41:24;2.80;;;2.60;;
495;SDS011;39559;48.630;9.162;2022-12-29T08:43:50;3.00;;;2.80;;
495;SDS011;39559;48.630;9.162;2022-12-29T08:46:16;3.30;;;3.00;;
495;SDS011;39559;48.630;9.162;2022-12-29T08:48:42;3.15;;;2.95;;
495;SDS011;39559;48.630;9.162;2022-12-29T08:53:16;3.20;;;2.90;;
495;SDS011;39559;48.630;9.162;2022-12-29T08:55:44;5.60;;;3.08;;
495;SDS011;39559;48.630;9.162;2022-12-29T08:58:11;2.97;;;2.75;;
495;SDS011;39559;48.630;9.162;2022-12-29T09:00:40;3.55;;;3.25;;
495;SDS011;39559;48.630;9.162;2022-12-29T09:03:06;3.30;;;2.90;;
495;SDS011;39559;48.630;9.162;2022-12-29T09:05:32;3.90;;;3.27;;
495;SDS011;39559;48.630;9.162;2022-12-29T09:07:57;4.63;;;2.90;;
495;SDS011;39559;48.630;9.162;2022-12-29T09:10:23;3.03;;;2.73;;
495;SDS011;39559;48.630;9.162;2022-12-29T09:12:48;3.67;;;3.37;;
495;SDS011;39559;48.630;9.162;2022-12-29T09:17:15;4.03;;;2.65;;
495;SDS011;39559;48.630;9.162;2022-12-29T09:19:59;4.78;;;2.97;;
495;SDS011;39559;48.630;9.162;2022-12-29T09:22:24;3.37;;;2.97;;
495;SDS011;39559;48.630;9.162;2022-12-29T09:24:49;3.30;;;3.00;;
495;SDS011;39559;48.630;9.162;2022-12-29T09:27:15;4.60;;;2.97;;
495;SDS011;39559;48.630;9.162;2022-12-29T09:29:41;3.20;;;2.83;;
495;SDS011;39559;48.630;9.162;2022-12-29T09:32:06;3.57;;;3.27;;
495;SDS011;39559;48.630;9.162;2022-12-29T09:34:32;3.95;;;2.85;;
495;SDS011;39559;48.630;9.162;2022-12-29T09:36:58;4.23;;;2.90;;
495;SDS011;39559;48.630;9.162;2022-12-29T09:41:15;3.25;;;3.00;;
495;SDS011;39559;48.630;9.162;2022-12-29T09:46:49;3.22;;;2.95;;
495;SDS011;39559;48.630;9.162;2022-12-29T09:49:29;4.05;;;3.10;;
495;SDS011;39559;48.630;9.162;2022-12-29T09:52:14;3.78;;;2.80;;
495;SDS011;39559;48.630;9.162;2022-12-29T09:57:24;4.03;;;3.20;;
495;SDS011;39559;48.630;9.162;2022-12-29T09:59:55;3.40;;;2.78;;
495;SDS011;39559;48.630;9.162;2022-12-29T10:02:32;3.40;;;2.60;;
495;SDS011;39559;48.630;9.162;2022-12-29T10:05:13;3.45;;;2.95;;
495;SDS011;39559;48.630;9.162;2022-12-29T10:07:52;5.03;;;3.20;;
495;SDS011;39559;48.630;9.162;2022-12-29T10:10:35;4.18;;;3.40;;
495;SDS011;39559;48.630;9.162;2022-12-29T10:26:17;3.10;;;2.90;;
495;SDS011;39559;48.630;9.162;2022-12-29T10:29:24;3.13;;;2.78;;
495;SDS011;39559;48.630;9.162;2022-12-29T10:32:17;3.78;;;3.08;;
495;SDS011;39559;48.630;9.162;2022-12-29T10:34:47;4.72;;;3.00;;
495;SDS011;39559;48.630;9.162;2022-12-29T10:39:43;3.73;;;3.43;;
495;SDS011;39559;48.630;9.162;2022-12-29T10:45:10;3.50;;;3.17;;
495;SDS011;39559;48.630;9.162;2022-12-29T10:50:25;3.60;;;3.08;;
495;SDS011;39559;48.630;9.162;2022-12-29T10:53:12;3.40;;;3.10;;
495;SDS011;39559;48.630;9.162;2022-12-29T10:55:52;3.63;;;3.10;;
495;SDS011;39559;48.630;9.162;2022-12-29T10:58:20;3.47;;;3.17;;
495;SDS011;39559;48.630;9.162;2022-12-29T11:00:49;4.40;;;3.30;;
495;SDS011;39559;48.630;9.162;2022-12-29T11:06:40;3.50;;;3.20;;
495;SDS011;39559;48.630;9.162;2022-12-29T11:09:10;4.00;;;3.70;;
495;SDS011;39559;48.630;9.162;2022-12-29T11:11:40;2.80;;;2.60;;
495;SDS011;39559;48.630;9.162;2022-12-29T11:14:19;2.90;;;2.70;;
495;SDS011;39559;48.630;9.162;2022-12-29T11:17:09;4.55;;;3.20;;
495;SDS011;39559;48.630;9.162;2022-12-29T11:19:40;3.00;;;2.80;;
495;SDS011;39559;48.630;9.162;2022-12-29T11:22:22;4.67;;;3.00;;
495;SDS011;39559;48.630;9.162;2022-12-29T11:24:53;3.38;;;2.80;;
495;SDS011;39559;48.630;9.162;2022-12-29T11:27:29;3.10;;;2.90;;
495;SDS011;39559;48.630;9.162;2022-12-29T11:29:55;3.07;;;2.87;;
495;SDS011;39559;48.630;9.162;2022-12-29T11:32:25;3.43;;;2.87;;
495;SDS011;39559;48.630;9.162;2022-12-29T11:34:52;3.40;;;2.95;;
495;SDS011;39559;48.630;9.162;2022-12-29T11:41:10;9.68;;;5.40;;
495;SDS011;39559;48.630;9.162;2022-12-29T11:43:41;3.20;;;3.00;;
495;SDS011;39559;48.630;9.162;2022-12-29T11:46:28;3.65;;;2.85;;
495;SDS011;39559;48.630;9.162;2022-12-29T11:48:56;3.50;;;3.20;;
495;SDS011;39559;48.630;9.162;2022-12-29T11:51:27;3.58;;;2.90;;
495;SDS011;39559;48.630;9.162;2022-12-29T11:53:59;5.85;;;3.30;;
495;SDS011;39559;48.630;9.162;2022-12-29T11:56:45;3.22;;;2.92;;
495;SDS011;39559;48.630;9.162;2022-12-29T11:59:24;3.15;;;2.95;;
495;SDS011;39559;48.630;9.162;2022-12-29T12:05:08;3.47;;;3.17;;
495;SDS011;39559;48.630;9.162;2022-12-29T12:07:44;5.25;;;3.33;;
495;SDS011;39559;48.630;9.162;2022-12-29T12:10:47;3.58;;;3.28;;
495;SDS011;39559;48.630;9.162;2022-12-29T12:13:36;3.30;;;3.00;;
495;SDS011;39559;48.630;9.162;2022-12-29T12:16:43;3.80;;;3.40;;
495;SDS011;39559;48.630;9.162;2022-12-29T12:22:07;5.40;;;3.63;;
495;SDS011;39559;48.630;9.162;2022-12-29T12:29:08;4.70;;;3.50;;
495;SDS011;39559;48.630;9.162;2022-12-29T12:34:27;3.10;;;2.85;;
495;SDS011;39559;48.630;9.162;2022-12-29T12:39:59;3.60;;;3.20;;
495;SDS011;39559;48.630;9.162;2022-12-29T12:53:08;3.58;;;3.28;;
495;SDS011;39559;48.630;9.162;2022-12-29T13:22:44;3.40;;;3.10;;
495;SDS011;39559;48.630;9.162;2022-12-29T13:25:25;3.72;;;3.30;;
495;SDS011;39559;48.630;9.162;2022-12-29T13:28:01;3.60;;;3.20;;
495;SDS011;39559;48.630;9.162;2022-12-29T13:38:22;3.53;;;3.22;;
495;SDS011;39559;48.630;9.162;2022-12-29T13:41:00;3.35;;;3.15;;
495;SDS011;39559;48.630;9.162;2022-12-29T13:43:47;4.95;;;3.53;;
495;SDS011;39559;48.630;9.162;2022-12-29T13:46:23;3.65;;;3.35;;
495;SDS011;39559;48.630;9.162;2022-12-29T13:48:53;4.40;;;3.60;;
495;SDS011;39559;48.630;9.162;2022-12-29T13:51:24;4.78;;;3.50;;
495;SDS011;39559;48.630;9.162;2022-12-29T13:59:50;4.80;;;3.30;;
495;SDS011;39559;48.630;9.162;2022-12-29T14:05:02;3.47;;;3.17;;
495;SDS011;39559;48.630;9.162;2022-12-29T14:07:36;3.63;;;3.33;;
495;SDS011;39559;48.630;9.162;2022-12-29T14:10:03;6.68;;;3.80;;
495;SDS011;39559;48.630;9.162;2022-12-29T14:12:31;3.85;;;3.10;;
495;SDS011;39559;48.630;9.162;2022-12-29T14:15:04;4.40;;;3.88;;
495;SDS011;39559;48.630;9.162;2022-12-29T14:17:36;3.30;;;3.00;;
495;SDS011;39559;48.630;9.162;2022-12-29T14:20:05;3.50;;;3.20;;
495;SDS011;39559;48.630;9.162;2022-12-29T14:22:58;4.10;;;3.70;;
495;SDS011;39559;48.630;9.162;2022-12-29T14:28:56;3.50;;;3.20;;
495;SDS011;39559;48.630;9.162;2022-12-29T14:44:45;4.00;;;3.60;;
495;SDS011;39559;48.630;9.162;2022-12-29T14:47:22;4.70;;;2.90;;
495;SDS011;39559;48.630;9.162;2022-12-29T14:49:55;3.58;;;3.28;;
495;SDS011;39559;48.630;9.162;2022-12-29T14:52:55;3.40;;;3.10;;
495;SDS011;39559;48.630;9.162;2022-12-29T14:55:42;3.80;;;3.40;;
495;SDS011;39559;48.630;9.162;2022-12-29T14:58:28;4.55;;;3.30;;
495;SDS011;39559;48.630;9.162;2022-12-29T15:00:58;5.60;;;3.40;;
495;SDS011;39559;48.630;9.162;2022-12-29T15:03:43;4.95;;;4.43;;
495;SDS011;39559;48.630;9.162;2022-12-29T15:06:13;4.00;;;3.60;;
495;SDS011;39559;48.630;9.162;2022-12-29T15:08:47;3.80;;;3.50;;
495;SDS011;39559;48.630;9.162;2022-12-29T15:11:22;5.30;;;4.78;;
495;SDS011;39559;48.630;9.162;2022-12-29T15:13:56;6.13;;;5.18;;
495;SDS011;39559;48.630;9.162;2022-12-29T15:16:53;4.90;;;4.38;;
495;SDS011;39559;48.630;9.162;2022-12-29T15:19:21;4.37;;;3.90;;
495;SDS011;39559;48.630;9.162;2022-12-29T15:21:48;3.97;;;3.60;;
495;SDS011;39559;48.630;9.162;2022-12-29T15:24:14;3.47;;;3.17;;
495;SDS011;39559;48.630;9.162;2022-12-29T15:26:41;3.73;;;3.37;;
495;SDS011;39559;48.630;9.162;2022-12-29T15:34:41;4.85;;;4.13;;
495;SDS011;39559;48.630;9.162;2022-12-29T15:37:08;4.20;;;3.78;;
495;SDS011;39559;48.630;9.162;2022-12-29T15:41:02;3.97;;;3.50;;
495;SDS011;39559;48.630;9.162;2022-12-29T15:46:18;4.30;;;3.55;;
495;SDS011;39559;48.630;9.162;2022-12-29T15:48:44;4.60;;;3.80;;
495;SDS011;39559;48.630;9.162;2022-12-29T15:51:20;5.30;;;3.80;;
495;SDS011;39559;48.630;9.162;2022-12-29T15:53:59;4.35;;;3.80;;
495;SDS011;39559;48.630;9.162;2022-12-29T15:56:28;4.83;;;3.57;;
495;SDS011;39559;48.630;9.162;2022-12-29T15:58:55;4.15;;;3.75;;
495;SDS011;39559;48.630;9.162;2022-12-29T16:01:32;4.40;;;4.00;;
495;SDS011;39559;48.630;9.162;2022-12-29T16:04:49;4.15;;;3.75;;
495;SDS011;39559;48.630;9.162;2022-12-29T16:07:26;3.63;;;3.05;;
495;SDS011;39559;48.630;9.162;2022-12-29T16:09:58;6.07;;;4.78;;
495;SDS011;39559;48.630;9.162;2022-12-29T16:12:34;3.50;;;3.30;;
495;SDS011;39559;48.630;9.162;2022-12-29T16:15:05;5.82;;;3.90;;
495;SDS011;39559;48.630;9.162;2022-12-29T16:17:43;4.65;;;4.13;;
495;SDS011;39559;48.630;9.162;2022-12-29T16:20:17;4.72;;;4.20;;
495;SDS011;39559;48.630;9.162;2022-12-29T16:22:46;4.40;;;4.00;;
495;SDS011;39559;48.630;9.162;2022-12-29T16:28:48;4.88;;;4.38;;
495;SDS011;39559;48.630;9.162;2022-12-29T16:31:28;5.07;;;3.83;;
495;SDS011;39559;48.630;9.162;2022-12-29T16:34:12;4.07;;;3.67;;
495;SDS011;39559;48.630;9.162;2022-12-29T16:36:57;6.30;;;5.28;;
495;SDS011;39559;48.630;9.162;2022-12-29T16:39:34;4.57;;;3.70;;
495;SDS011;39559;48.630;9.162;2022-12-29T16:47:35;5.20;;;4.70;;
495;SDS011;39559;48.630;9.162;2022-12-29T16:50:10;7.43;;;4.63;;
495;SDS011;39559;48.630;9.162;2022-12-29T16:52:45;5.25;;;4.28;;
495;SDS011;39559;48.630;9.162;2022-12-29T16:55:17;4.53;;;3.85;;
495;SDS011;39559;48.630;9.162;2022-12-29T16:57:44;5.95;;;4.75;;
495;SDS011;39559;48.630;9.162;2022-12-29T17:00:23;6.68;;;5.32;;
495;SDS011;39559;48.630;9.162;2022-12-29T17:02:50;5.50;;;4.85;;
495;SDS011;39559;48.630;9.162;2022-12-29T17:05:19;5.03;;;4.50;;
495;SDS011;39559;48.630;9.162;2022-12-29T17:07:45;4.53;;;4.13;;
495;SDS011;39559;48.630;9.162;2022-12-29T17:10:11;4.80;;;4.40;;
495;SDS011;39559;48.630;9.162;2022-12-29T17:12:42;5.32;;;4.28;;
495;SDS011;39559;48.630;9.162;2022-12-29T17:16:44;7.55;;;5.05;;
495;SDS011;39559;48.630;9.162;2022-12-29T17:19:12;7.30;;;5.60;;
495;SDS011;39559;48.630;9.162;2022-12-29T17:21:42;6.90;;;4.90;;
495;SDS011;39559;48.630;9.162;2022-12-29T17:24:12;4.73;;;4.23;;
495;SDS011;39559;48.630;9.162;2022-12-29T17:26:47;5.50;;;5.00;;
495;SDS011;39559;48.630;9.162;2022-12-29T17:29:24;9.40;;;7.60;;
495;SDS011;39559;48.630;9.162;2022-12-29T17:31:54;8.35;;;7.55;;
495;SDS011;39559;48.630;9.162;2022-12-29T17:34:20;7.60;;;6.90;;
495;SDS011;39559;48.630;9.162;2022-12-29T17:36:45;8.30;;;6.43;;
495;SDS011;39559;48.630;9.162;2022-12-29T17:40:42;7.00;;;5.35;;
495;SDS011;39559;48.630;9.162;2022-12-29T17:43:07;5.60;;;5.10;;
495;SDS011;39559;48.630;9.162;2022-12-29T17:45:37;7.32;;;6.18;;
495;SDS011;39559;48.630;9.162;2022-12-29T17:48:08;5.93;;;5.40;;
495;SDS011;39559;48.630;9.162;2022-12-29T17:50:36;5.78;;;5.28;;
495;SDS011;39559;48.630;9.162;2022-12-29T17:53:03;5.50;;;5.00;;
495;SDS011;39559;48.630;9.162;2022-12-29T17:55:33;5.85;;;5.35;;
495;SDS011;39559;48.630;9.162;2022-12-29T17:57:58;5.40;;;4.90;;
495;SDS011;39559;48.630;9.162;2022-12-29T18:00:28;6.57;;;5.80;;
495;SDS011;39559;48.630;9.162;2022-12-29T18:04:40;5.63;;;5.10;;
495;SDS011;39559;48.630;9.162;2022-12-29T18:07:09;6.00;;;5.07;;
495;SDS011;39559;48.630;9.162;2022-12-29T18:09:35;6.70;;;5.65;;
495;SDS011;39559;48.630;9.162;2022-12-29T18:12:01;9.57;;;8.17;;
495;SDS011;39559;48.630;9.162;2022-12-29T18:14:27;9.55;;;6.93;;
495;SDS011;39559;48.630;9.162;2022-12-29T18:16:53;10.50;;;7.97;;
495;SDS011;39559;48.630;9.162;2022-12-29T18:19:19;6.70;;;5.97;;
495;SDS011;39559;48.630;9.162;2022-12-29T18:21:44;6.47;;;5.87;;
495;SDS011;39559;48.630;9.162;2022-12-29T18:24:12;5.33;;;4.83;;
495;SDS011;39559;48.630;9.162;2022-12-29T18:28:38;5.97;;;5.47;;
495;SDS011;39559;48.630;9.162;2022-12-29T18:31:08;7.33;;;6.10;;
495;SDS011;39559;48.630;9.162;2022-12-29T18:33:41;7.85;;;6.72;;
495;SDS011;39559;48.630;9.162;2022-12-29T18:36:08;5.43;;;4.77;;
495;SDS011;39559;48.630;9.162;2022-12-29T18:38:36;6.25;;;5.65;;
495;SDS011;39559;48.630;9.162;2022-12-29T18:41:02;7.20;;;5.03;;
495;SDS011;39559;48.630;9.162;2022-12-29T18:43:28;19.90;;;12.73;;
495;SDS011;39559;48.630;9.162;2022-12-29T18:45:53;6.13;;;5.40;;
495;SDS011;39559;48.630;9.162;2022-12-29T18:48:19;5.87;;;5.13;;
495;SDS011;39559;48.630;9.162;2022-12-29T18:52:37;4.32;;;3.90;;
495;SDS011;39559;48.630;9.162;2022-12-29T18:55:02;4.30;;;3.90;;
495;SDS011;39559;48.630;9.162;2022-12-29T18:57:28;8.85;;;6.25;;
495;SDS011;39559;48.630;9.162;2022-12-29T18:59:55;6.60;;;6.00;;
495;SDS011;39559;48.630;9.162;2022-12-29T19:02:21;11.37;;;8.50;;
495;SDS011;39559;48.630;9.162;2022-12-29T19:04:47;7.50;;;6.47;;
495;SDS011;39559;48.630;9.162;2022-12-29T19:07:12;7.53;;;6.73;;
495;SDS011;39559;48.630;9.162;2022-12-29T19:09:38;7.30;;;5.67;;
495;SDS011;39559;48.630;9.162;2022-12-29T19:12:04;5.73;;;5.23;;
495;SDS011;39559;48.630;9.162;2022-12-29T19:16:36;5.65;;;4.50;;
495;SDS011;39559;48.630;9.162;2022-12-29T19:19:02;4.63;;;3.80;;
495;SDS011;39559;48.630;9.162;2022-12-29T19:21:28;5.03;;;4.30;;
495;SDS011;39559;48.630;9.162;2022-12-29T19:23:54;4.03;;;3.30;;
495;SDS011;39559;48.630;9.162;2022-12-29T19:26:29;5.07;;;4.67;;
495;SDS011;39559;48.630;9.162;2022-12-29T19:28:58;4.53;;;4.13;;
495;SDS011;39559;48.630;9.162;2022-12-29T19:31:24;3.30;;;3.00;;